Time;durP1;ratioP1;P1;durP2;ratioP2;P2;SDS_P1;SDS_P2;PMS_P1;PMS_P2;Temp;Humidity;BMP_temperature;BMP_pressure;BME280_temperature;BME280_humidity;BME280_pressure;Samples;Min_cycle;Max_cycle;Signal;HPM_P1;HPM_P2
2022/01/05 00:02:13;;;;;;;23.45;3.42;;;5.50;99.90;;;;;;5019655;28;20022;-89
2022/01/05 00:04:39;;;;;;;16.35;2.70;;;5.50;99.90;;;;;;5019481;28;20048;-89
2022/01/05 00:07:06;;;;;;;11.38;2.78;;;5.50;99.90;;;;;;5019320;28;20080;-89
2022/01/05 00:09:33;;;;;;;8.05;2.08;;;5.50;99.90;;;;;;5019296;28;20044;-90
2022/01/05 00:12:03;;;;;;;11.57;1.88;;;5.40;99.90;;;;;;5019636;28;20053;-89
2022/01/05 00:14:29;;;;;;;7.97;1.70;;;5.40;99.90;;;;;;5037494;28;20037;-89
2022/01/05 00:16:54;;;;;;;9.30;1.70;;;5.40;99.90;;;;;;5020437;28;20030;-89
2022/01/05 00:19:20;;;;;;;12.77;3.40;;;5.40;99.90;;;;;;5004640;28;20032;-89
2022/01/05 00:21:48;;;;;;;12.70;2.28;;;5.40;99.90;;;;;;5019793;28;20100;-89
2022/01/05 00:24:14;;;;;;;15.77;2.97;;;5.30;99.90;;;;;;5020542;28;20049;-89
2022/01/05 00:26:40;;;;;;;9.38;2.08;;;5.20;99.90;;;;;;5006803;28;20033;-89
2022/01/05 00:29:06;;;;;;;11.23;2.70;;;5.30;99.90;;;;;;5024599;28;20025;-89
2022/01/05 00:31:31;;;;;;;10.95;1.98;;;5.30;99.90;;;;;;5029813;28;20029;-89
2022/01/05 00:33:59;;;;;;;12.23;1.85;;;5.20;99.90;;;;;;5024533;28;20117;-89
2022/01/05 00:36:25;;;;;;;9.27;1.85;;;5.20;99.90;;;;;;5003248;28;20037;-89
2022/01/05 00:38:51;;;;;;;7.22;1.50;;;5.20;99.90;;;;;;5005005;28;20117;-89
2022/01/05 00:41:20;;;;;;;8.38;1.98;;;5.20;99.90;;;;;;5004364;28;20433;-89
2022/01/05 00:43:46;;;;;;;9.13;1.70;;;5.10;99.90;;;;;;5005288;28;20026;-89
2022/01/05 00:46:12;;;;;;;8.57;2.00;;;5.10;99.90;;;;;;5023544;28;20017;-88
2022/01/05 00:48:38;;;;;;;12.27;2.00;;;5.10;99.90;;;;;;5006117;28;20037;-89
2022/01/05 00:51:06;;;;;;;11.07;2.30;;;5.00;99.90;;;;;;5021553;28;20037;-89
2022/01/05 00:53:33;;;;;;;9.30;1.55;;;5.00;99.90;;;;;;5021200;28;20052;-89
2022/01/05 00:55:59;;;;;;;9.88;1.90;;;5.00;99.90;;;;;;5022460;28;20051;-89
2022/01/05 00:58:27;;;;;;;13.30;1.90;;;5.00;99.90;;;;;;5005732;28;20131;-89
2022/01/05 01:00:53;;;;;;;8.98;2.13;;;4.90;99.90;;;;;;5021535;28;20069;-89
2022/01/05 01:03:19;;;;;;;13.98;1.95;;;5.00;99.90;;;;;;5023601;28;20022;-89
2022/01/05 01:05:45;;;;;;;9.13;1.45;;;4.90;99.90;;;;;;5038618;28;20619;-89
2022/01/05 01:08:11;;;;;;;15.18;1.80;;;4.90;99.90;;;;;;5030690;28;20063;-89
2022/01/05 01:10:37;;;;;;;10.38;2.33;;;4.90;99.90;;;;;;5038461;28;20013;-90
2022/01/05 01:13:03;;;;;;;9.43;2.20;;;4.80;99.90;;;;;;5022234;28;20022;-89
2022/01/05 01:15:29;;;;;;;12.50;2.10;;;4.90;99.90;;;;;;5038778;28;20043;-90
2022/01/05 01:17:55;;;;;;;10.15;2.47;;;4.80;99.90;;;;;;5039556;28;20036;-89
2022/01/05 01:20:21;;;;;;;8.93;1.60;;;4.80;99.90;;;;;;5023358;28;20032;-90
2022/01/05 01:22:48;;;;;;;15.13;1.90;;;4.70;99.90;;;;;;5037840;28;20029;-89
2022/01/05 01:25:14;;;;;;;15.70;2.10;;;4.80;99.90;;;;;;5038956;28;20022;-90
2022/01/05 01:27:43;;;;;;;8.23;1.60;;;4.70;99.90;;;;;;5032734;28;20067;-89
2022/01/05 01:30:10;;;;;;;14.05;2.13;;;4.70;99.90;;;;;;5009847;28;20065;-88
2022/01/05 01:32:39;;;;;;;12.13;1.90;;;4.70;99.90;;;;;;5025179;28;20029;-88
2022/01/05 01:35:05;;;;;;;13.48;2.47;;;4.60;99.90;;;;;;5023614;28;20033;-88
2022/01/05 01:37:31;;;;;;;13.45;2.70;;;4.70;99.90;;;;;;5025337;28;20049;-88
2022/01/05 01:39:57;;;;;;;11.40;2.15;;;4.60;99.90;;;;;;5031046;28;20024;-88
2022/01/05 01:42:23;;;;;;;10.15;1.98;;;4.60;99.90;;;;;;5029666;28;20017;-88
2022/01/05 01:44:48;;;;;;;10.45;1.63;;;4.60;99.90;;;;;;5008257;28;20537;-89
2022/01/05 01:47:16;;;;;;;13.05;2.63;;;4.60;99.90;;;;;;4999200;28;20134;-89
2022/01/05 01:49:42;;;;;;;9.48;1.65;;;4.60;99.90;;;;;;5017999;28;20022;-88
2022/01/05 01:52:08;;;;;;;9.73;1.77;;;4.60;99.90;;;;;;5019382;28;20470;-88
2022/01/05 01:54:35;;;;;;;9.52;1.95;;;4.60;99.90;;;;;;5020118;28;20061;-89
2022/01/05 01:57:02;;;;;;;7.45;2.38;;;4.60;99.90;;;;;;5018090;28;20045;-88
2022/01/05 01:59:28;;;;;;;7.70;2.08;;;4.60;99.90;;;;;;5015205;28;20038;-86
2022/01/05 02:01:54;;;;;;;15.05;2.28;;;4.60;99.90;;;;;;4981356;28;20034;-87
2022/01/05 02:04:50;;;;;;;11.32;2.72;;;4.60;99.90;;;;;;4965304;28;20028;-86
2022/01/05 02:11:18;;;;;;;13.90;2.10;;;4.50;99.90;;;;;;5014308;28;20045;-86
2022/01/05 02:20:46;;;;;;;9.85;2.30;;;4.40;99.90;;;;;;5033343;28;20056;-86
2022/01/05 02:27:21;;;;;;;11.90;1.92;;;4.40;99.90;;;;;;5032729;28;20094;-86
2022/01/05 02:40:25;;;;;;;12.20;1.88;;;4.30;99.90;;;;;;5014122;28;20026;-86
2022/01/05 02:46:36;;;;;;;13.40;2.20;;;4.30;99.90;;;;;;5015036;28;20481;-86
2022/01/05 02:53:14;;;;;;;10.88;2.35;;;4.30;99.90;;;;;;5032024;28;20063;-86
2022/01/05 03:02:37;;;;;;;12.10;2.35;;;4.20;99.90;;;;;;5037592;28;20033;-86
2022/01/05 03:46:31;;;;;;;12.93;2.10;;;4.00;99.90;;;;;;5036648;28;20422;-85
2022/01/05 03:52:24;;;;;;;9.73;2.92;;;4.00;99.90;;;;;;5048083;28;20072;-84
2022/01/05 04:05:16;;;;;;;12.75;3.17;;;3.90;99.90;;;;;;5036314;28;20056;-85
2022/01/05 04:11:19;;;;;;;18.63;2.60;;;3.90;99.90;;;;;;5035782;28;20076;-85
2022/01/05 04:28:04;;;;;;;12.52;2.38;;;3.90;99.90;;;;;;5035571;28;20389;-85
2022/01/05 04:37:53;;;;;;;10.23;1.70;;;3.90;99.90;;;;;;5035479;28;20033;-85
2022/01/05 04:51:24;;;;;;;9.10;1.92;;;3.80;99.90;;;;;;5035190;28;20037;-85
2022/01/05 05:37:23;;;;;;;14.23;2.70;;;3.80;99.90;;;;;;5034106;28;20084;-85
2022/01/05 05:48:43;;;;;;;16.48;2.90;;;3.90;99.90;;;;;;5033435;28;20460;-85
2022/01/05 05:55:10;;;;;;;11.23;2.03;;;3.90;99.90;;;;;;5033777;28;20059;-85
2022/01/05 05:57:55;;;;;;;13.48;2.42;;;4.00;99.90;;;;;;5000564;28;20120;-85
2022/01/05 06:00:48;;;;;;;15.20;2.38;;;4.00;99.90;;;;;;5005145;28;20022;-85
2022/01/05 06:06:50;;;;;;;12.82;2.88;;;4.00;99.90;;;;;;5053843;28;20028;-85
2022/01/05 06:12:53;;;;;;;15.13;2.60;;;4.00;99.90;;;;;;5051366;28;20035;-86
2022/01/05 06:53:13;;;;;;;13.68;3.33;;;4.50;99.90;;;;;;5037461;28;20022;-86
2022/01/05 06:55:39;;;;;;;14.13;2.67;;;4.50;99.90;;;;;;5017326;28;20496;-85
2022/01/05 06:58:04;;;;;;;13.40;2.63;;;4.50;99.90;;;;;;4983823;28;20040;-85
2022/01/05 07:00:31;;;;;;;12.45;3.30;;;4.60;99.90;;;;;;4999938;28;20034;-83
2022/01/05 07:06:24;;;;;;;15.57;3.03;;;4.60;99.90;;;;;;5017241;28;20033;-83
2022/01/05 07:08:49;;;;;;;15.77;2.35;;;4.60;99.90;;;;;;4967238;28;20038;-84
2022/01/05 07:11:15;;;;;;;13.98;2.42;;;4.70;99.90;;;;;;4983382;28;20033;-83
2022/01/05 07:13:40;;;;;;;10.27;2.38;;;4.70;99.90;;;;;;4999496;28;20026;-83
2022/01/05 07:16:06;;;;;;;15.02;2.60;;;4.70;99.90;;;;;;4983667;28;20030;-83
2022/01/05 07:18:39;;;;;;;18.10;2.95;;;4.70;99.90;;;;;;4999778;28;20026;-84
2022/01/05 07:24:27;;;;;;;12.07;2.00;;;4.80;99.90;;;;;;5016796;28;20366;-83
2022/01/05 07:26:52;;;;;;;13.45;2.85;;;4.80;99.90;;;;;;4999261;28;20034;-84
2022/01/05 07:29:19;;;;;;;14.10;2.30;;;4.80;99.90;;;;;;4983888;28;20528;-84
2022/01/05 07:31:45;;;;;;;13.32;2.35;;;4.90;99.90;;;;;;4983246;28;20070;-84
2022/01/05 07:34:11;;;;;;;15.65;3.75;;;4.90;99.90;;;;;;4983392;28;20037;-83
2022/01/05 07:40:04;;;;;;;14.60;3.17;;;4.90;99.90;;;;;;5016612;28;20021;-84
2022/01/05 08:03:21;;;;;;;14.85;2.00;;;5.10;99.90;;;;;;5018168;28;20045;-85
2022/01/05 08:09:22;;;;;;;16.15;2.97;;;5.20;99.90;;;;;;5024101;28;20042;-84
2022/01/05 08:15:20;;;;;;;22.58;2.90;;;5.20;99.90;;;;;;5018244;28;20362;-84
2022/01/05 08:21:08;;;;;;;15.20;3.15;;;5.30;99.90;;;;;;5016029;28;20072;-85
2022/01/05 08:30:44;;;;;;;18.55;2.63;;;5.30;99.90;;;;;;5015538;28;20387;-84
2022/01/05 08:36:38;;;;;;;15.80;2.92;;;5.30;99.90;;;;;;5015874;28;20536;-84
2022/01/05 08:42:26;;;;;;;17.42;2.80;;;5.30;99.90;;;;;;5015601;28;20048;-84
2022/01/05 08:44:51;;;;;;;19.38;2.95;;;5.30;99.90;;;;;;5015399;28;20120;-84
2022/01/05 08:47:17;;;;;;;17.90;3.35;;;5.30;99.90;;;;;;4982899;28;20382;-82
2022/01/05 08:49:43;;;;;;;20.10;3.25;;;5.30;99.90;;;;;;4997494;28;20034;-82
2022/01/05 08:52:08;;;;;;;14.93;2.38;;;5.30;99.90;;;;;;4998268;28;20057;-82
2022/01/05 08:54:34;;;;;;;21.10;4.18;;;5.30;99.90;;;;;;4997803;28;20058;-85
2022/01/05 09:00:48;;;;;;;24.65;3.75;;;5.30;99.90;;;;;;5035699;28;20083;-85
2022/01/05 09:06:47;;;;;;;22.52;2.75;;;5.30;99.90;;;;;;5034715;28;20040;-84
2022/01/05 09:12:43;;;;;;;21.52;3.25;;;5.30;99.90;;;;;;5034672;28;20037;-85
2022/01/05 09:18:31;;;;;;;20.13;3.45;;;5.30;99.90;;;;;;5037328;28;20052;-85
2022/01/05 09:24:19;;;;;;;14.85;3.33;;;5.30;99.90;;;;;;5035941;28;20059;-86
2022/01/05 09:26:45;;;;;;;21.33;2.58;;;5.20;99.90;;;;;;4985799;28;20037;-87
2022/01/05 09:29:11;;;;;;;17.20;3.17;;;5.20;99.90;;;;;;5016882;28;20124;-86
2022/01/05 09:31:36;;;;;;;18.35;3.20;;;5.20;99.90;;;;;;5004953;28;20076;-86
2022/01/05 09:34:02;;;;;;;16.52;2.85;;;5.20;99.90;;;;;;5016943;28;20029;-86
2022/01/05 09:36:46;;;;;;;16.02;2.45;;;5.20;99.90;;;;;;5000541;28;20386;-86
2022/01/05 09:42:05;;;;;;;19.63;3.72;;;5.20;99.90;;;;;;5021619;28;20068;-86
2022/01/05 09:44:43;;;;;;;18.17;3.03;;;5.20;99.90;;;;;;5036497;28;20485;-87
2022/01/05 09:53:50;;;;;;;18.88;2.80;;;5.30;99.90;;;;;;5051434;28;20032;-87
2022/01/05 09:59:40;;;;;;;16.55;3.53;;;5.30;99.90;;;;;;5034819;28;20489;-87
2022/01/05 10:05:33;;;;;;;17.95;2.65;;;5.30;99.90;;;;;;5034287;28;20091;-87
2022/01/05 10:07:58;;;;;;;17.00;2.75;;;5.30;99.90;;;;;;5000142;28;20173;-87
2022/01/05 10:10:24;;;;;;;16.25;2.65;;;5.30;99.90;;;;;;5000349;28;20029;-88
2022/01/05 10:12:50;;;;;;;16.27;3.53;;;5.30;99.90;;;;;;4984330;28;20037;-87
2022/01/05 10:15:16;;;;;;;24.95;3.25;;;5.30;99.90;;;;;;5000630;28;20030;-88
2022/01/05 10:17:42;;;;;;;17.88;2.70;;;5.30;99.90;;;;;;5001293;28;20030;-87
2022/01/05 10:20:13;;;;;;;20.92;3.47;;;5.40;99.90;;;;;;5000482;28;20043;-88
2022/01/05 10:22:45;;;;;;;25.38;4.05;;;5.40;99.90;;;;;;5000656;28;20037;-89
2022/01/05 10:28:34;;;;;;;20.05;3.55;;;5.40;99.90;;;;;;4974282;28;20199;-88
2022/01/05 10:35:00;;;;;;;22.67;3.38;;;5.40;99.90;;;;;;4966706;28;20110;-88
2022/01/05 10:37:26;;;;;;;20.70;3.38;;;5.40;99.90;;;;;;4957466;28;20035;-90
2022/01/05 10:40:03;;;;;;;25.10;3.40;;;5.50;99.90;;;;;;4957409;28;20031;-89
2022/01/05 10:42:32;;;;;;;23.65;3.58;;;5.50;99.90;;;;;;4957611;28;20035;-88
2022/01/05 10:44:58;;;;;;;18.20;3.70;;;5.50;99.90;;;;;;4941806;28;20038;-88
2022/01/05 10:47:33;;;;;;;23.90;3.53;;;5.60;99.90;;;;;;4941854;28;20286;-88
2022/01/05 10:49:58;;;;;;;23.55;3.47;;;5.60;99.90;;;;;;4927866;28;20050;-88
2022/01/05 10:52:29;;;;;;;33.53;5.30;;;5.60;99.90;;;;;;4956940;28;20031;-89
2022/01/05 10:55:14;;;;;;;29.63;5.75;;;5.60;99.90;;;;;;4957466;28;20047;-88
2022/01/05 10:57:59;;;;;;;29.88;3.50;;;5.60;99.90;;;;;;4957181;28;20030;-88
2022/01/05 11:00:45;;;;;;;26.90;3.80;;;5.70;99.90;;;;;;4995917;28;20057;-88
2022/01/05 11:06:35;;;;;;;28.33;4.25;;;5.70;99.90;;;;;;4973321;28;20042;-87
2022/01/05 11:09:04;;;;;;;20.90;3.85;;;5.80;99.90;;;;;;4956746;28;20119;-88
2022/01/05 11:11:38;;;;;;;31.23;4.00;;;5.80;99.90;;;;;;4956813;28;20530;-88
2022/01/05 11:17:25;;;;;;;31.35;4.15;;;5.90;99.90;;;;;;4950334;28;20074;-96
2022/01/05 11:29:08;;;;;;;31.77;3.97;;;5.90;99.90;;;;;;4925770;29;20040;-96
2022/01/05 11:31:44;;;;;;;33.35;4.93;;;5.90;99.90;;;;;;4963724;28;20106;-93
2022/01/05 11:34:16;;;;;;;21.02;3.03;;;5.90;99.90;;;;;;4961879;28;20109;-94
2022/01/05 11:36:54;;;;;;;23.95;3.35;;;5.90;99.90;;;;;;4958240;28;20044;-93
2022/01/05 11:39:41;;;;;;;;;;;;;;;;;;;;;
2022/01/05 11:42:13;;;;;;;38.67;4.40;;;5.90;99.90;;;;;;5022685;28;20117;-92
2022/01/05 11:45:05;;;;;;;30.33;4.28;;;5.90;99.90;;;;;;5017755;28;20021;-93
2022/01/05 11:48:17;;;;;;;38.63;4.35;;;6.00;99.90;;;;;;4985249;28;20142;-91
2022/01/05 11:51:08;;;;;;;34.45;4.68;;;5.90;99.90;;;;;;4981652;28;20065;-93
2022/01/05 11:53:43;;;;;;;30.73;4.22;;;6.00;99.90;;;;;;4985895;28;20093;-92
2022/01/05 11:56:17;;;;;;;34.47;5.15;;;6.00;99.90;;;;;;5000575;28;20096;-96
2022/01/05 11:58:55;;;;;;;24.25;3.45;;;6.00;99.90;;;;;;5002936;28;20046;-92
2022/01/05 12:14:46;;;;;;;26.33;3.00;;;6.10;99.90;;;;;;4988468;28;20068;-91
2022/01/05 12:17:14;;;;;;;38.90;5.20;;;6.10;99.90;;;;;;5045621;28;20028;-89
2022/01/05 12:19:49;;;;;;;24.88;3.47;;;6.10;99.90;;;;;;5014976;28;20083;-91
2022/01/05 12:22:18;;;;;;;24.80;3.97;;;6.20;99.90;;;;;;5028464;28;20500;-90
2022/01/05 12:24:52;;;;;;;32.25;4.30;;;6.20;99.90;;;;;;5021374;28;20029;-88
2022/01/05 12:27:25;;;;;;;25.73;3.38;;;6.20;99.90;;;;;;5020015;28;20029;-91
2022/01/05 12:29:52;;;;;;;26.83;3.45;;;6.20;99.90;;;;;;5019239;28;20022;-91
2022/01/05 12:32:36;;;;;;;24.52;3.33;;;6.20;99.90;;;;;;5019409;28;20061;-90
2022/01/05 12:35:18;;;;;;;27.50;3.42;;;6.30;99.90;;;;;;5036310;28;20084;-91
2022/01/05 12:38:04;;;;;;;24.58;2.83;;;6.20;99.90;;;;;;5018922;28;20029;-89
2022/01/05 12:40:42;;;;;;;29.30;3.30;;;6.30;99.90;;;;;;4987004;28;20458;-90
2022/01/05 12:43:08;;;;;;;28.25;2.88;;;6.20;99.90;;;;;;5018991;28;20025;-90
2022/01/05 12:45:50;;;;;;;29.95;3.65;;;6.30;99.90;;;;;;5018762;28;20101;-90
2022/01/05 12:48:52;;;;;;;27.75;3.25;;;6.30;99.90;;;;;;5018126;28;20163;-89
2022/01/05 12:51:23;;;;;;;25.10;3.72;;;6.30;99.90;;;;;;5035289;28;20025;-88
2022/01/05 12:54:02;;;;;;;30.70;3.20;;;6.30;99.90;;;;;;5018188;28;20079;-87
2022/01/05 12:56:51;;;;;;;36.03;3.20;;;6.30;99.90;;;;;;5036058;28;20543;-88
2022/01/05 12:59:22;;;;;;;34.50;3.97;;;6.30;99.90;;;;;;5018360;28;20440;-89
2022/01/05 13:01:54;;;;;;;27.50;3.45;;;6.40;99.90;;;;;;5035507;28;20029;-88
2022/01/05 13:04:24;;;;;;;42.03;3.67;;;6.40;99.90;;;;;;5002221;28;20025;-88
2022/01/05 13:06:52;;;;;;;26.70;3.42;;;6.40;99.90;;;;;;5018619;28;20588;-88
2022/01/05 13:09:27;;;;;;;21.35;3.08;;;6.40;99.90;;;;;;5002028;28;20385;-88
2022/01/05 13:12:18;;;;;;;28.80;3.63;;;6.40;99.90;;;;;;5017905;28;20033;-89
2022/01/05 13:14:52;;;;;;;27.80;3.28;;;6.40;99.90;;;;;;5017887;28;20421;-89
2022/01/05 13:17:20;;;;;;;29.42;3.20;;;6.40;99.90;;;;;;5035021;28;20030;-88
2022/01/05 13:19:50;;;;;;;25.25;3.05;;;6.40;99.90;;;;;;5017703;28;20033;-88
2022/01/05 13:22:23;;;;;;;23.40;3.88;;;6.50;99.90;;;;;;5018284;28;20014;-88
2022/01/05 13:25:07;;;;;;;30.13;3.13;;;6.50;99.90;;;;;;5018509;28;20540;-88
2022/01/05 13:27:47;;;;;;;26.52;3.55;;;6.50;99.90;;;;;;5035957;28;20018;-89
2022/01/05 13:30:20;;;;;;;19.92;3.10;;;6.50;99.90;;;;;;5039015;28;20030;-88
2022/01/05 13:32:49;;;;;;;38.50;3.97;;;6.60;99.90;;;;;;5019387;28;20056;-88
2022/01/05 13:35:19;;;;;;;32.80;4.47;;;6.60;99.90;;;;;;5035485;28;20025;-88
2022/01/05 13:37:50;;;;;;;31.95;3.80;;;6.60;99.90;;;;;;5036634;28;20120;-90
2022/01/05 13:40:17;;;;;;;32.42;3.75;;;6.60;99.90;;;;;;5033376;28;20036;-88
2022/01/05 13:42:52;;;;;;;28.88;4.65;;;6.60;99.90;;;;;;5042793;28;20104;-88
2022/01/05 13:45:25;;;;;;;29.30;3.55;;;6.60;99.90;;;;;;5017663;28;20488;-88
2022/01/05 13:48:03;;;;;;;27.55;3.47;;;6.60;99.90;;;;;;5017157;28;20026;-88
2022/01/05 13:50:37;;;;;;;38.00;4.18;;;6.70;99.90;;;;;;5034476;28;20094;-88
2022/01/05 13:53:06;;;;;;;42.60;5.10;;;6.70;99.90;;;;;;5016976;28;20088;-89
2022/01/05 13:55:38;;;;;;;28.08;3.50;;;6.70;99.90;;;;;;5016760;28;20021;-89
2022/01/05 13:58:18;;;;;;;26.75;3.90;;;6.80;99.90;;;;;;5017070;28;20033;-88
2022/01/05 14:00:47;;;;;;;34.50;3.90;;;6.70;99.90;;;;;;4999937;28;20136;-88
2022/01/05 14:03:34;;;;;;;30.48;3.50;;;6.70;99.90;;;;;;5034358;28;20040;-88
2022/01/05 14:06:01;;;;;;;30.05;5.85;;;6.80;99.90;;;;;;5016694;28;20025;-88
2022/01/05 14:08:37;;;;;;;27.52;5.03;;;6.80;99.90;;;;;;5000326;28;20026;-88
2022/01/05 14:11:14;;;;;;;31.88;4.22;;;6.80;99.90;;;;;;5016527;28;20128;-88
2022/01/05 14:14:06;;;;;;;41.53;4.05;;;6.80;99.90;;;;;;5016625;28;20377;-87
2022/01/05 14:16:35;;;;;;;23.08;3.55;;;6.80;99.90;;;;;;5016558;28;20032;-88
2022/01/05 14:19:13;;;;;;;27.40;3.42;;;6.80;99.90;;;;;;5034273;28;20060;-88
2022/01/05 14:21:49;;;;;;;33.88;3.70;;;6.80;99.90;;;;;;5034080;28;20116;-87
2022/01/05 14:24:33;;;;;;;23.90;3.25;;;6.80;99.90;;;;;;5016095;28;20457;-88
2022/01/05 14:26:58;;;;;;;35.38;5.38;;;6.80;99.90;;;;;;5034085;28;20022;-88
2022/01/05 14:29:25;;;;;;;35.28;4.03;;;6.80;99.90;;;;;;5000208;28;20531;-87
2022/01/05 14:31:52;;;;;;;24.10;3.20;;;6.80;99.90;;;;;;5016810;28;20033;-87
2022/01/05 14:34:23;;;;;;;25.40;3.40;;;6.90;99.90;;;;;;5016724;28;20029;-88
2022/01/05 14:37:01;;;;;;;28.20;3.30;;;6.90;99.90;;;;;;5016595;28;20033;-88
2022/01/05 14:39:46;;;;;;;38.63;3.50;;;6.90;99.90;;;;;;5000922;28;20442;-88
2022/01/05 14:42:16;;;;;;;37.55;4.43;;;6.80;99.90;;;;;;5016404;28;20378;-93
2022/01/05 14:44:48;;;;;;;36.83;4.03;;;6.90;99.90;;;;;;5033812;28;20033;-88
2022/01/05 14:47:20;;;;;;;22.25;3.63;;;6.90;99.90;;;;;;5016558;28;20034;-87
2022/01/05 14:49:47;;;;;;;35.33;3.88;;;6.90;99.90;;;;;;5016511;28;20033;-87
2022/01/05 14:52:13;;;;;;;26.38;3.92;;;6.90;99.90;;;;;;5016373;28;20113;-86
2022/01/05 14:54:40;;;;;;;29.35;5.40;;;6.90;99.90;;;;;;5017838;28;20061;-87
2022/01/05 14:57:16;;;;;;;31.17;4.68;;;6.90;99.90;;;;;;5020505;28;20454;-87
2022/01/05 14:59:43;;;;;;;21.30;3.63;;;6.90;99.90;;;;;;5019634;28;20045;-87
2022/01/05 15:05:31;;;;;;;26.98;4.68;;;6.90;99.90;;;;;;5037388;28;20048;-87
2022/01/05 15:07:57;;;;;;;21.73;3.65;;;6.90;99.90;;;;;;5003308;28;20033;-86
2022/01/05 15:10:23;;;;;;;31.25;3.97;;;6.90;99.90;;;;;;5003077;28;20041;-87
2022/01/05 15:12:49;;;;;;;31.30;3.22;;;6.90;99.90;;;;;;5002762;28;20030;-87
2022/01/05 15:15:14;;;;;;;28.40;3.80;;;6.90;99.90;;;;;;5019463;28;20026;-94
2022/01/05 15:17:40;;;;;;;30.48;3.70;;;7.00;99.90;;;;;;4987024;28;20041;-87
2022/01/05 15:20:06;;;;;;;29.65;3.30;;;6.90;99.90;;;;;;5019665;28;20087;-86
2022/01/05 15:22:34;;;;;;;26.52;3.47;;;7.00;99.90;;;;;;5025470;28;20025;-86
2022/01/05 15:25:01;;;;;;;24.77;3.60;;;7.00;99.90;;;;;;5019686;28;20454;-86
2022/01/05 15:27:26;;;;;;;29.98;3.60;;;7.00;99.90;;;;;;5002937;28;20038;-86
2022/01/05 15:29:52;;;;;;;39.95;5.32;;;7.00;99.90;;;;;;5003527;28;20034;-87
2022/01/05 15:32:18;;;;;;;20.55;3.88;;;6.90;99.90;;;;;;5019322;28;20061;-87
2022/01/05 15:34:44;;;;;;;27.67;4.20;;;7.00;99.90;;;;;;5003346;28;20033;-88
2022/01/05 15:37:09;;;;;;;29.35;4.57;;;6.90;99.90;;;;;;5002944;28;20458;-87
2022/01/05 15:39:35;;;;;;;30.27;3.80;;;6.90;99.90;;;;;;5019454;28;20053;-88
2022/01/05 15:42:01;;;;;;;28.08;3.95;;;6.90;99.90;;;;;;5003462;28;20061;-88
2022/01/05 15:44:27;;;;;;;28.75;3.92;;;6.90;99.90;;;;;;5020176;28;20053;-87
2022/01/05 15:46:53;;;;;;;29.05;4.10;;;6.90;99.90;;;;;;5019418;28;20451;-87
2022/01/05 15:49:20;;;;;;;41.83;5.00;;;6.90;99.90;;;;;;4987139;28;20033;-88
2022/01/05 15:51:47;;;;;;;28.20;5.25;;;6.90;99.90;;;;;;5003277;28;20424;-88
2022/01/05 15:54:13;;;;;;;25.27;3.25;;;6.90;99.90;;;;;;5003272;28;20017;-88
2022/01/05 16:02:01;;;;;;;35.33;3.92;;;6.90;99.90;;;;;;5037908;28;20049;-88
2022/01/05 16:04:29;;;;;;;26.92;3.88;;;6.90;99.90;;;;;;5018446;28;20474;-87
2022/01/05 16:06:55;;;;;;;43.38;3.95;;;6.80;99.90;;;;;;5017941;28;20519;-90
2022/01/05 16:09:22;;;;;;;28.02;3.92;;;6.80;99.90;;;;;;5018559;28;20041;-88
2022/01/05 16:11:51;;;;;;;37.72;4.13;;;6.80;99.90;;;;;;5020278;28;20028;-95
2022/01/05 16:14:18;;;;;;;31.98;4.00;;;6.80;99.90;;;;;;5019723;28;20045;-88
2022/01/05 16:16:44;;;;;;;29.52;4.32;;;6.80;99.90;;;;;;5024946;28;20461;-90
2022/01/05 16:19:12;;;;;;;30.80;3.70;;;6.80;99.90;;;;;;5014543;28;20071;-89
2022/01/05 16:21:39;;;;;;;33.00;5.63;;;6.70;99.90;;;;;;5043374;28;20028;-88
2022/01/05 16:24:07;;;;;;;36.45;4.75;;;6.80;99.90;;;;;;5005996;28;20094;-88
2022/01/05 16:26:32;;;;;;;23.02;4.45;;;6.80;99.90;;;;;;5035854;28;20033;-88
2022/01/05 16:28:58;;;;;;;36.75;4.32;;;6.80;99.90;;;;;;5001697;28;20410;-88
2022/01/05 16:31:24;;;;;;;31.70;3.47;;;6.80;99.90;;;;;;5035695;28;20041;-87
2022/01/05 16:33:50;;;;;;;31.90;3.30;;;6.80;99.90;;;;;;5002377;28;20022;-88
2022/01/05 16:36:17;;;;;;;34.33;4.88;;;6.80;99.90;;;;;;5018819;28;20028;-88
2022/01/05 16:38:44;;;;;;;25.08;3.90;;;6.80;99.90;;;;;;5017750;28;20032;-87
2022/01/05 16:41:10;;;;;;;29.88;5.38;;;6.80;99.90;;;;;;5017305;28;20026;-88
2022/01/05 16:43:37;;;;;;;32.60;4.20;;;6.80;99.90;;;;;;5016954;28;20021;-88
2022/01/05 16:46:02;;;;;;;27.75;3.88;;;6.80;99.90;;;;;;5035184;28;20028;-88
2022/01/05 16:48:28;;;;;;;36.53;4.40;;;6.80;99.90;;;;;;5017313;28;20045;-91
2022/01/05 16:50:54;;;;;;;33.28;4.28;;;6.80;99.90;;;;;;5001630;28;20080;-88
2022/01/05 16:53:21;;;;;;;29.58;5.35;;;6.80;99.90;;;;;;5017863;28;20025;-88
2022/01/05 16:55:51;;;;;;;30.75;3.65;;;6.80;99.90;;;;;;5017535;28;20496;-87
2022/01/05 17:01:08;;;;;;;32.78;4.07;;;6.80;99.90;;;;;;5035506;28;20052;-90
2022/01/05 17:03:34;;;;;;;26.02;3.95;;;6.80;99.90;;;;;;5017732;28;20027;-89
2022/01/05 17:06:01;;;;;;;31.30;4.97;;;6.80;99.90;;;;;;5017184;28;20581;-89
2022/01/05 17:08:27;;;;;;;31.77;4.43;;;6.80;99.90;;;;;;5017593;28;20022;-93
2022/01/05 17:10:54;;;;;;;33.17;4.50;;;6.80;99.90;;;;;;5026570;28;20024;-91
2022/01/05 17:13:22;;;;;;;27.85;4.30;;;6.80;99.90;;;;;;5022301;28;20026;-88
2022/01/05 17:15:52;;;;;;;31.55;4.55;;;6.80;99.90;;;;;;5039611;28;20044;-92
2022/01/05 17:18:18;;;;;;;29.38;4.53;;;6.80;99.90;;;;;;5029542;28;20026;-89
2022/01/05 17:20:44;;;;;;;24.83;4.28;;;6.70;99.90;;;;;;5037275;28;20021;-94
2022/01/05 17:23:10;;;;;;;32.65;4.10;;;6.80;99.90;;;;;;5056071;28;20027;-90
2022/01/05 17:25:36;;;;;;;29.35;4.47;;;6.80;99.90;;;;;;5035482;28;20025;-90
2022/01/05 17:28:05;;;;;;;27.77;4.70;;;6.80;99.90;;;;;;5012863;28;20052;-90
2022/01/05 17:30:35;;;;;;;29.10;4.50;;;6.80;99.90;;;;;;5019179;28;20112;-90
2022/01/05 17:33:00;;;;;;;23.17;5.35;;;6.80;99.90;;;;;;5034710;28;20087;-89
2022/01/05 17:35:26;;;;;;;39.55;4.82;;;6.80;99.90;;;;;;5000950;28;20026;-89
2022/01/05 17:37:52;;;;;;;32.28;4.50;;;6.80;99.90;;;;;;5017297;28;20022;-89
2022/01/05 17:40:18;;;;;;;32.53;4.90;;;6.80;99.90;;;;;;5000367;28;20030;-89
2022/01/05 17:42:44;;;;;;;33.42;4.35;;;6.80;99.90;;;;;;5000157;28;20029;-87
2022/01/05 17:45:10;;;;;;;34.75;4.22;;;6.80;99.90;;;;;;5000547;28;20018;-87
2022/01/05 17:47:36;;;;;;;26.50;3.78;;;6.80;99.90;;;;;;5000059;28;20033;-87
2022/01/05 17:50:03;;;;;;;23.23;3.55;;;6.70;99.90;;;;;;5016467;28;20113;-87
2022/01/05 17:52:29;;;;;;;34.05;6.50;;;6.70;99.90;;;;;;5016674;28;20013;-87
2022/01/05 17:54:59;;;;;;;28.77;3.90;;;6.70;99.90;;;;;;4999798;28;20115;-88
2022/01/05 17:57:25;;;;;;;28.63;5.60;;;6.70;99.90;;;;;;5016272;28;20067;-87
2022/01/05 17:59:51;;;;;;;33.50;5.15;;;6.70;99.90;;;;;;5016207;28;20100;-87
2022/01/05 18:02:16;;;;;;;30.73;3.90;;;6.70;99.90;;;;;;5000254;28;20033;-89
2022/01/05 18:04:42;;;;;;;31.52;5.85;;;6.70;99.90;;;;;;5000260;28;20064;-87
2022/01/05 18:07:08;;;;;;;28.65;3.42;;;6.70;99.90;;;;;;5016020;28;20018;-87
2022/01/05 18:09:35;;;;;;;25.25;3.88;;;6.70;99.90;;;;;;5016886;28;20026;-88
2022/01/05 18:12:01;;;;;;;31.02;4.28;;;6.70;99.90;;;;;;5016141;28;20028;-87
2022/01/05 18:14:26;;;;;;;21.90;3.67;;;6.60;99.90;;;;;;5015707;28;20097;-88
2022/01/05 18:16:53;;;;;;;23.27;4.25;;;6.60;99.90;;;;;;5000060;28;20018;-89
2022/01/05 18:19:37;;;;;;;31.27;3.92;;;6.60;99.90;;;;;;5033931;28;20029;-87
2022/01/05 18:22:24;;;;;;;33.95;3.67;;;6.60;99.90;;;;;;5016482;28;20028;-87
2022/01/05 18:24:55;;;;;;;30.27;3.97;;;6.60;99.90;;;;;;5033675;28;20034;-87
2022/01/05 18:27:30;;;;;;;27.50;4.25;;;6.60;99.90;;;;;;5033613;28;20022;-87
2022/01/05 18:29:56;;;;;;;18.08;4.20;;;6.50;99.90;;;;;;5036506;28;20021;-87
2022/01/05 18:32:22;;;;;;;17.77;4.03;;;6.50;99.90;;;;;;5024027;28;20471;-89
2022/01/05 18:34:48;;;;;;;22.25;3.22;;;6.50;99.90;;;;;;5005647;28;20052;-88
2022/01/05 18:37:14;;;;;;;24.63;3.72;;;6.50;99.90;;;;;;5022772;28;20032;-88
2022/01/05 18:39:40;;;;;;;25.98;3.05;;;6.50;99.90;;;;;;5023058;28;20014;-87
2022/01/05 18:42:06;;;;;;;21.20;4.07;;;6.50;99.90;;;;;;5006448;28;20382;-88
2022/01/05 18:44:32;;;;;;;28.70;3.83;;;6.50;99.90;;;;;;5006735;28;20033;-85
2022/01/05 18:46:59;;;;;;;27.38;3.45;;;6.50;99.90;;;;;;5022328;28;20016;-85
2022/01/05 18:49:26;;;;;;;26.17;4.50;;;6.40;99.90;;;;;;5022837;28;20095;-88
2022/01/05 18:51:53;;;;;;;22.15;3.25;;;6.40;99.90;;;;;;5023079;28;20044;-88
2022/01/05 18:54:19;;;;;;;28.98;3.85;;;6.50;99.90;;;;;;5040225;28;20028;-86
2022/01/05 18:56:45;;;;;;;18.83;3.20;;;6.40;99.90;;;;;;5006247;28;20022;-86
2022/01/05 18:59:10;;;;;;;24.15;4.70;;;6.40;99.90;;;;;;5022617;28;20446;-86
2022/01/05 19:01:36;;;;;;;30.83;4.05;;;6.40;99.90;;;;;;5022424;28;20132;-87
2022/01/05 19:04:02;;;;;;;27.13;4.80;;;6.40;99.90;;;;;;5022644;28;20049;-88
2022/01/05 19:06:28;;;;;;;21.80;3.33;;;6.40;99.90;;;;;;5040439;28;20022;-88
2022/01/05 19:08:54;;;;;;;19.10;3.20;;;6.40;99.90;;;;;;5022864;28;20037;-88
2022/01/05 19:11:23;;;;;;;25.40;3.00;;;6.30;99.90;;;;;;5022860;28;20055;-87